sensor_id;sensor_type;location;lat;lon;timestamp;P1;durP1;ratioP1;P2;durP2;ratioP2
7563;SDS011;3823;53.586;10.040;2023-03-24T00:01:04;8.02;;;5.18;;
7563;SDS011;3823;53.586;10.040;2023-03-24T00:03:30;6.80;;;5.30;;
7563;SDS011;3823;53.586;10.040;2023-03-24T00:06:00;8.70;;;5.30;;
7563;SDS011;3823;53.586;10.040;2023-03-24T00:08:28;7.00;;;5.13;;
7563;SDS011;3823;53.586;10.040;2023-03-24T00:10:59;5.88;;;4.80;;
7563;SDS011;3823;53.586;10.040;2023-03-24T00:13:27;7.90;;;4.72;;
7563;SDS011;3823;53.586;10.040;2023-03-24T00:15:53;7.68;;;5.22;;
7563;SDS011;3823;53.586;10.040;2023-03-24T00:18:19;6.97;;;5.13;;
7563;SDS011;3823;53.586;10.040;2023-03-24T00:20:46;4.30;;;3.90;;
7563;SDS011;3823;53.586;10.040;2023-03-24T00:23:12;7.45;;;5.45;;
7563;SDS011;3823;53.586;10.040;2023-03-24T00:25:39;6.30;;;4.13;;
7563;SDS011;3823;53.586;10.040;2023-03-24T00:28:04;6.20;;;3.95;;
7563;SDS011;3823;53.586;10.040;2023-03-24T00:30:32;5.63;;;4.35;;
7563;SDS011;3823;53.586;10.040;2023-03-24T00:32:59;4.95;;;3.95;;
7563;SDS011;3823;53.586;10.040;2023-03-24T00:35:26;6.40;;;3.80;;
7563;SDS011;3823;53.586;10.040;2023-03-24T00:37:52;7.05;;;4.18;;
7563;SDS011;3823;53.586;10.040;2023-03-24T00:40:18;7.35;;;4.32;;
7563;SDS011;3823;53.586;10.040;2023-03-24T00:42:45;4.75;;;4.30;;
7563;SDS011;3823;53.586;10.040;2023-03-24T00:45:14;3.83;;;3.53;;
7563;SDS011;3823;53.586;10.040;2023-03-24T00:47:43;12.80;;;4.93;;
7563;SDS011;3823;53.586;10.040;2023-03-24T00:50:11;3.92;;;3.35;;
7563;SDS011;3823;53.586;10.040;2023-03-24T00:52:39;3.72;;;3.35;;
7563;SDS011;3823;53.586;10.040;2023-03-24T00:55:08;9.40;;;3.45;;
7563;SDS011;3823;53.586;10.040;2023-03-24T00:57:38;6.80;;;3.55;;
7563;SDS011;3823;53.586;10.040;2023-03-24T01:00:05;5.13;;;3.88;;
7563;SDS011;3823;53.586;10.040;2023-03-24T01:02:37;7.30;;;3.83;;
7563;SDS011;3823;53.586;10.040;2023-03-24T01:05:03;4.40;;;3.55;;
7563;SDS011;3823;53.586;10.040;2023-03-24T01:07:29;8.88;;;4.07;;
7563;SDS011;3823;53.586;10.040;2023-03-24T01:09:55;6.25;;;3.92;;
7563;SDS011;3823;53.586;10.040;2023-03-24T01:12:28;4.95;;;4.45;;
7563;SDS011;3823;53.586;10.040;2023-03-24T01:14:56;5.95;;;4.00;;
7563;SDS011;3823;53.586;10.040;2023-03-24T01:17:22;8.10;;;4.72;;
7563;SDS011;3823;53.586;10.040;2023-03-24T01:19:53;6.88;;;4.10;;
7563;SDS011;3823;53.586;10.040;2023-03-24T01:22:20;4.95;;;3.50;;
7563;SDS011;3823;53.586;10.040;2023-03-24T01:24:46;6.30;;;3.83;;
7563;SDS011;3823;53.586;10.040;2023-03-24T01:27:13;3.83;;;3.45;;
7563;SDS011;3823;53.586;10.040;2023-03-24T01:29:38;5.38;;;4.00;;
7563;SDS011;3823;53.586;10.040;2023-03-24T01:32:04;4.40;;;4.00;;
7563;SDS011;3823;53.586;10.040;2023-03-24T01:34:30;7.82;;;4.43;;
7563;SDS011;3823;53.586;10.040;2023-03-24T01:36:57;8.45;;;4.03;;
7563;SDS011;3823;53.586;10.040;2023-03-24T01:39:23;6.22;;;3.50;;
7563;SDS011;3823;53.586;10.040;2023-03-24T01:41:48;7.38;;;4.13;;
7563;SDS011;3823;53.586;10.040;2023-03-24T01:44:36;6.22;;;4.47;;
7563;SDS011;3823;53.586;10.040;2023-03-24T01:47:05;4.30;;;3.65;;
7563;SDS011;3823;53.586;10.040;2023-03-24T01:49:36;4.45;;;4.05;;
7563;SDS011;3823;53.586;10.040;2023-03-24T01:52:11;6.45;;;3.85;;
7563;SDS011;3823;53.586;10.040;2023-03-24T01:55:04;7.53;;;4.22;;
7563;SDS011;3823;53.586;10.040;2023-03-24T01:57:33;5.28;;;3.92;;
7563;SDS011;3823;53.586;10.040;2023-03-24T02:00:05;5.78;;;3.58;;
7563;SDS011;3823;53.586;10.040;2023-03-24T02:02:33;6.07;;;4.75;;
7563;SDS011;3823;53.586;10.040;2023-03-24T02:05:05;6.65;;;3.90;;
7563;SDS011;3823;53.586;10.040;2023-03-24T02:10:12;4.60;;;4.18;;
7563;SDS011;3823;53.586;10.040;2023-03-24T02:12:40;4.60;;;3.50;;
7563;SDS011;3823;53.586;10.040;2023-03-24T02:15:07;5.28;;;3.60;;
7563;SDS011;3823;53.586;10.040;2023-03-24T02:39:42;6.22;;;4.63;;
7563;SDS011;3823;53.586;10.040;2023-03-24T02:50:27;5.80;;;4.22;;
7563;SDS011;3823;53.586;10.040;2023-03-24T02:55:43;6.80;;;4.22;;
7563;SDS011;3823;53.586;10.040;2023-03-24T02:58:18;6.65;;;4.90;;
7563;SDS011;3823;53.586;10.040;2023-03-24T03:00:57;5.47;;;4.07;;
7563;SDS011;3823;53.586;10.040;2023-03-24T03:03:33;9.02;;;3.85;;
7563;SDS011;3823;53.586;10.040;2023-03-24T03:06:08;5.10;;;4.60;;
7563;SDS011;3823;53.586;10.040;2023-03-24T03:08:39;5.88;;;5.03;;
7563;SDS011;3823;53.586;10.040;2023-03-24T03:11:06;4.68;;;3.50;;
7563;SDS011;3823;53.586;10.040;2023-03-24T03:13:38;7.22;;;4.55;;
7563;SDS011;3823;53.586;10.040;2023-03-24T03:16:15;7.03;;;4.32;;
7563;SDS011;3823;53.586;10.040;2023-03-24T03:18:50;4.60;;;4.20;;
7563;SDS011;3823;53.586;10.040;2023-03-24T03:21:22;6.90;;;5.93;;
7563;SDS011;3823;53.586;10.040;2023-03-24T03:23:51;8.07;;;4.40;;
7563;SDS011;3823;53.586;10.040;2023-03-24T03:26:21;6.55;;;3.85;;
7563;SDS011;3823;53.586;10.040;2023-03-24T03:28:55;10.30;;;4.95;;
7563;SDS011;3823;53.586;10.040;2023-03-24T03:31:32;4.72;;;4.32;;
7563;SDS011;3823;53.586;10.040;2023-03-24T03:36:47;6.15;;;4.38;;
7563;SDS011;3823;53.586;10.040;2023-03-24T03:39:28;10.27;;;5.05;;
7563;SDS011;3823;53.586;10.040;2023-03-24T03:41:57;11.90;;;4.95;;
7563;SDS011;3823;53.586;10.040;2023-03-24T03:44:23;7.75;;;4.70;;
7563;SDS011;3823;53.586;10.040;2023-03-24T03:46:49;8.45;;;4.47;;
7563;SDS011;3823;53.586;10.040;2023-03-24T03:49:14;5.90;;;4.93;;
7563;SDS011;3823;53.586;10.040;2023-03-24T03:51:40;6.47;;;5.30;;
7563;SDS011;3823;53.586;10.040;2023-03-24T03:54:06;8.18;;;4.50;;
7563;SDS011;3823;53.586;10.040;2023-03-24T03:56:35;9.20;;;5.10;;
7563;SDS011;3823;53.586;10.040;2023-03-24T03:59:02;5.90;;;5.20;;
7563;SDS011;3823;53.586;10.040;2023-03-24T04:01:30;5.45;;;4.93;;
7563;SDS011;3823;53.586;10.040;2023-03-24T04:12:16;5.75;;;4.63;;
7563;SDS011;3823;53.586;10.040;2023-03-24T04:15:02;5.18;;;4.18;;
7563;SDS011;3823;53.586;10.040;2023-03-24T04:20:42;6.22;;;4.57;;
7563;SDS011;3823;53.586;10.040;2023-03-24T04:34:36;5.15;;;4.75;;
7563;SDS011;3823;53.586;10.040;2023-03-24T04:37:15;6.75;;;5.00;;
7563;SDS011;3823;53.586;10.040;2023-03-24T04:39:45;7.55;;;5.15;;
7563;SDS011;3823;53.586;10.040;2023-03-24T04:42:18;5.00;;;4.60;;
7563;SDS011;3823;53.586;10.040;2023-03-24T04:44:49;6.32;;;4.10;;
7563;SDS011;3823;53.586;10.040;2023-03-24T04:47:16;4.35;;;3.88;;
7563;SDS011;3823;53.586;10.040;2023-03-24T04:49:44;5.53;;;4.32;;
7563;SDS011;3823;53.586;10.040;2023-03-24T04:52:10;6.40;;;5.82;;
7563;SDS011;3823;53.586;10.040;2023-03-24T04:54:35;7.30;;;4.72;;
7563;SDS011;3823;53.586;10.040;2023-03-24T04:57:01;4.00;;;3.70;;
7563;SDS011;3823;53.586;10.040;2023-03-24T04:59:27;8.18;;;4.50;;
7563;SDS011;3823;53.586;10.040;2023-03-24T05:01:53;6.75;;;4.28;;
7563;SDS011;3823;53.586;10.040;2023-03-24T05:04:20;5.35;;;4.85;;
7563;SDS011;3823;53.586;10.040;2023-03-24T05:06:47;5.78;;;4.68;;
7563;SDS011;3823;53.586;10.040;2023-03-24T05:09:16;5.80;;;5.28;;
7563;SDS011;3823;53.586;10.040;2023-03-24T05:11:43;5.65;;;5.03;;
7563;SDS011;3823;53.586;10.040;2023-03-24T05:14:09;5.50;;;5.00;;
7563;SDS011;3823;53.586;10.040;2023-03-24T05:16:35;5.18;;;4.75;;
7563;SDS011;3823;53.586;10.040;2023-03-24T05:19:01;6.20;;;4.60;;
7563;SDS011;3823;53.586;10.040;2023-03-24T05:21:27;6.13;;;5.63;;
7563;SDS011;3823;53.586;10.040;2023-03-24T05:23:53;6.05;;;5.45;;
7563;SDS011;3823;53.586;10.040;2023-03-24T05:26:18;5.25;;;4.85;;
7563;SDS011;3823;53.586;10.040;2023-03-24T05:28:44;5.40;;;5.00;;
7563;SDS011;3823;53.586;10.040;2023-03-24T05:31:09;10.77;;;5.25;;
7563;SDS011;3823;53.586;10.040;2023-03-24T05:33:35;5.78;;;5.05;;
7563;SDS011;3823;53.586;10.040;2023-03-24T05:36:01;5.75;;;5.25;;
7563;SDS011;3823;53.586;10.040;2023-03-24T05:38:26;4.80;;;4.40;;
7563;SDS011;3823;53.586;10.040;2023-03-24T05:40:55;12.60;;;5.15;;
7563;SDS011;3823;53.586;10.040;2023-03-24T05:43:24;5.90;;;5.40;;
7563;SDS011;3823;53.586;10.040;2023-03-24T05:45:50;4.43;;;4.00;;
7563;SDS011;3823;53.586;10.040;2023-03-24T05:48:16;4.70;;;4.30;;
7563;SDS011;3823;53.586;10.040;2023-03-24T05:50:42;7.72;;;4.55;;
7563;SDS011;3823;53.586;10.040;2023-03-24T05:53:07;8.27;;;5.07;;
7563;SDS011;3823;53.586;10.040;2023-03-24T05:55:33;8.65;;;4.75;;
7563;SDS011;3823;53.586;10.040;2023-03-24T05:57:59;5.93;;;4.75;;
7563;SDS011;3823;53.586;10.040;2023-03-24T06:00:26;4.60;;;4.20;;
7563;SDS011;3823;53.586;10.040;2023-03-24T06:02:54;4.38;;;4.07;;
7563;SDS011;3823;53.586;10.040;2023-03-24T06:05:20;5.00;;;4.40;;
7563;SDS011;3823;53.586;10.040;2023-03-24T06:07:46;4.93;;;4.53;;
7563;SDS011;3823;53.586;10.040;2023-03-24T06:10:11;4.57;;;4.28;;
7563;SDS011;3823;53.586;10.040;2023-03-24T06:12:38;7.30;;;4.20;;
7563;SDS011;3823;53.586;10.040;2023-03-24T06:15:05;4.35;;;4.00;;
7563;SDS011;3823;53.586;10.040;2023-03-24T06:17:32;4.78;;;4.38;;
7563;SDS011;3823;53.586;10.040;2023-03-24T06:19:58;7.28;;;4.72;;
7563;SDS011;3823;53.586;10.040;2023-03-24T06:22:30;4.47;;;4.10;;
7563;SDS011;3823;53.586;10.040;2023-03-24T06:24:56;4.93;;;4.28;;
7563;SDS011;3823;53.586;10.040;2023-03-24T06:27:26;3.58;;;3.28;;
7563;SDS011;3823;53.586;10.040;2023-03-24T06:29:54;9.02;;;5.15;;
7563;SDS011;3823;53.586;10.040;2023-03-24T06:32:21;3.92;;;3.63;;
7563;SDS011;3823;53.586;10.040;2023-03-24T06:34:46;3.97;;;3.67;;
7563;SDS011;3823;53.586;10.040;2023-03-24T06:37:12;3.78;;;3.47;;
7563;SDS011;3823;53.586;10.040;2023-03-24T06:39:37;3.30;;;3.10;;
7563;SDS011;3823;53.586;10.040;2023-03-24T06:42:03;2.92;;;2.72;;
7563;SDS011;3823;53.586;10.040;2023-03-24T06:44:29;4.18;;;3.00;;
7563;SDS011;3823;53.586;10.040;2023-03-24T06:46:55;3.13;;;2.90;;
7563;SDS011;3823;53.586;10.040;2023-03-24T06:49:20;3.65;;;3.40;;
7563;SDS011;3823;53.586;10.040;2023-03-24T06:51:46;3.80;;;3.50;;
7563;SDS011;3823;53.586;10.040;2023-03-24T06:54:11;3.40;;;3.10;;
7563;SDS011;3823;53.586;10.040;2023-03-24T06:56:37;3.08;;;2.88;;
7563;SDS011;3823;53.586;10.040;2023-03-24T06:59:03;3.80;;;3.50;;
7563;SDS011;3823;53.586;10.040;2023-03-24T07:01:29;2.92;;;2.72;;
7563;SDS011;3823;53.586;10.040;2023-03-24T07:03:55;5.85;;;3.60;;
7563;SDS011;3823;53.586;10.040;2023-03-24T07:06:20;3.92;;;3.63;;
7563;SDS011;3823;53.586;10.040;2023-03-24T07:08:47;3.42;;;3.20;;
7563;SDS011;3823;53.586;10.040;2023-03-24T07:11:13;4.35;;;3.88;;
7563;SDS011;3823;53.586;10.040;2023-03-24T07:13:39;5.15;;;4.05;;
7563;SDS011;3823;53.586;10.040;2023-03-24T07:16:05;3.97;;;3.65;;
7563;SDS011;3823;53.586;10.040;2023-03-24T07:18:31;4.85;;;2.10;;
7563;SDS011;3823;53.586;10.040;2023-03-24T07:20:59;2.15;;;1.85;;
7563;SDS011;3823;53.586;10.040;2023-03-24T07:23:25;2.38;;;2.17;;
7563;SDS011;3823;53.586;10.040;2023-03-24T07:25:51;3.72;;;2.13;;
7563;SDS011;3823;53.586;10.040;2023-03-24T07:28:17;2.08;;;1.88;;
7563;SDS011;3823;53.586;10.040;2023-03-24T07:30:43;2.00;;;1.90;;
7563;SDS011;3823;53.586;10.040;2023-03-24T07:33:09;2.72;;;1.80;;
7563;SDS011;3823;53.586;10.040;2023-03-24T07:35:36;3.55;;;2.00;;
7563;SDS011;3823;53.586;10.040;2023-03-24T07:38:02;2.25;;;2.00;;
7563;SDS011;3823;53.586;10.040;2023-03-24T07:40:28;1.90;;;1.80;;
7563;SDS011;3823;53.586;10.040;2023-03-24T07:42:54;1.98;;;1.88;;
7563;SDS011;3823;53.586;10.040;2023-03-24T07:45:23;2.40;;;2.20;;
7563;SDS011;3823;53.586;10.040;2023-03-24T07:47:49;2.15;;;1.60;;
7563;SDS011;3823;53.586;10.040;2023-03-24T07:50:15;4.55;;;1.98;;
7563;SDS011;3823;53.586;10.040;2023-03-24T07:52:41;1.70;;;1.60;;
7563;SDS011;3823;53.586;10.040;2023-03-24T07:55:10;2.65;;;1.55;;
7563;SDS011;3823;53.586;10.040;2023-03-24T07:57:40;3.28;;;1.85;;
7563;SDS011;3823;53.586;10.040;2023-03-24T08:00:15;5.18;;;1.55;;
7563;SDS011;3823;53.586;10.040;2023-03-24T08:02:46;4.50;;;1.50;;
7563;SDS011;3823;53.586;10.040;2023-03-24T08:05:13;5.40;;;1.27;;
7563;SDS011;3823;53.586;10.040;2023-03-24T08:07:40;1.15;;;0.90;;
7563;SDS011;3823;53.586;10.040;2023-03-24T08:10:07;10.07;;;1.42;;
7563;SDS011;3823;53.586;10.040;2023-03-24T08:12:34;3.92;;;1.40;;
7563;SDS011;3823;53.586;10.040;2023-03-24T08:15:00;4.15;;;1.08;;
7563;SDS011;3823;53.586;10.040;2023-03-24T08:17:25;3.17;;;1.30;;
7563;SDS011;3823;53.586;10.040;2023-03-24T08:19:51;4.07;;;1.15;;
7563;SDS011;3823;53.586;10.040;2023-03-24T08:22:16;4.43;;;1.35;;
7563;SDS011;3823;53.586;10.040;2023-03-24T08:24:42;4.75;;;1.45;;
7563;SDS011;3823;53.586;10.040;2023-03-24T08:27:07;6.03;;;1.10;;
7563;SDS011;3823;53.586;10.040;2023-03-24T08:29:33;4.63;;;1.27;;
7563;SDS011;3823;53.586;10.040;2023-03-24T08:31:58;1.67;;;0.88;;
7563;SDS011;3823;53.586;10.040;2023-03-24T08:34:25;5.45;;;1.40;;
7563;SDS011;3823;53.586;10.040;2023-03-24T08:36:51;4.82;;;1.10;;
7563;SDS011;3823;53.586;10.040;2023-03-24T08:39:16;3.72;;;1.10;;
7563;SDS011;3823;53.586;10.040;2023-03-24T08:41:42;1.85;;;1.10;;
7563;SDS011;3823;53.586;10.040;2023-03-24T08:44:09;4.18;;;1.25;;
7563;SDS011;3823;53.586;10.040;2023-03-24T08:46:35;8.43;;;1.25;;
7563;SDS011;3823;53.586;10.040;2023-03-24T08:49:01;1.92;;;1.25;;
7563;SDS011;3823;53.586;10.040;2023-03-24T08:51:27;5.38;;;1.65;;
7563;SDS011;3823;53.586;10.040;2023-03-24T08:53:53;5.07;;;1.33;;
7563;SDS011;3823;53.586;10.040;2023-03-24T08:56:19;6.03;;;1.95;;
7563;SDS011;3823;53.586;10.040;2023-03-24T08:58:45;2.55;;;0.90;;
7563;SDS011;3823;53.586;10.040;2023-03-24T09:01:17;5.45;;;1.35;;
7563;SDS011;3823;53.586;10.040;2023-03-24T09:03:46;3.15;;;0.95;;
7563;SDS011;3823;53.586;10.040;2023-03-24T09:06:12;11.68;;;2.35;;
7563;SDS011;3823;53.586;10.040;2023-03-24T09:08:38;6.70;;;1.67;;
7563;SDS011;3823;53.586;10.040;2023-03-24T09:11:04;2.70;;;1.10;;
7563;SDS011;3823;53.586;10.040;2023-03-24T09:13:30;19.65;;;3.67;;
7563;SDS011;3823;53.586;10.040;2023-03-24T09:15:57;3.92;;;1.55;;
7563;SDS011;3823;53.586;10.040;2023-03-24T09:18:24;3.78;;;1.60;;
7563;SDS011;3823;53.586;10.040;2023-03-24T09:20:51;6.95;;;1.40;;
7563;SDS011;3823;53.586;10.040;2023-03-24T09:23:17;6.68;;;2.30;;
7563;SDS011;3823;53.586;10.040;2023-03-24T09:25:43;5.22;;;1.10;;
7563;SDS011;3823;53.586;10.040;2023-03-24T09:28:09;5.72;;;1.55;;
7563;SDS011;3823;53.586;10.040;2023-03-24T09:30:35;3.25;;;1.17;;
7563;SDS011;3823;53.586;10.040;2023-03-24T09:33:01;3.20;;;1.50;;
7563;SDS011;3823;53.586;10.040;2023-03-24T09:35:27;4.72;;;1.52;;
7563;SDS011;3823;53.586;10.040;2023-03-24T09:37:53;3.22;;;1.50;;
7563;SDS011;3823;53.586;10.040;2023-03-24T09:43:01;6.10;;;1.33;;
7563;SDS011;3823;53.586;10.040;2023-03-24T09:45:35;4.57;;;2.35;;
7563;SDS011;3823;53.586;10.040;2023-03-24T09:48:12;10.10;;;1.48;;
7563;SDS011;3823;53.586;10.040;2023-03-24T09:50:58;6.20;;;1.83;;
7563;SDS011;3823;53.586;10.040;2023-03-24T09:53:36;9.35;;;1.35;;
7563;SDS011;3823;53.586;10.040;2023-03-24T09:56:25;7.47;;;1.58;;
7563;SDS011;3823;53.586;10.040;2023-03-24T09:59:04;3.42;;;1.65;;
7563;SDS011;3823;53.586;10.040;2023-03-24T10:01:32;2.15;;;0.80;;
7563;SDS011;3823;53.586;10.040;2023-03-24T10:03:59;6.72;;;1.60;;
7563;SDS011;3823;53.586;10.040;2023-03-24T10:06:30;6.78;;;1.25;;
7563;SDS011;3823;53.586;10.040;2023-03-24T10:09:07;4.32;;;1.98;;
7563;SDS011;3823;53.586;10.040;2023-03-24T10:12:03;12.30;;;2.20;;
7563;SDS011;3823;53.586;10.040;2023-03-24T10:20:20;7.03;;;2.17;;
7563;SDS011;3823;53.586;10.040;2023-03-24T10:25:17;4.72;;;1.77;;
7563;SDS011;3823;53.586;10.040;2023-03-24T10:27:56;4.20;;;1.75;;
7563;SDS011;3823;53.586;10.040;2023-03-24T10:30:37;5.72;;;1.40;;
7563;SDS011;3823;53.586;10.040;2023-03-24T10:33:08;3.97;;;1.90;;
7563;SDS011;3823;53.586;10.040;2023-03-24T10:35:36;5.95;;;1.85;;
7563;SDS011;3823;53.586;10.040;2023-03-24T10:38:20;4.18;;;1.30;;
7563;SDS011;3823;53.586;10.040;2023-03-24T10:40:47;5.57;;;1.65;;
7563;SDS011;3823;53.586;10.040;2023-03-24T10:43:16;6.38;;;1.73;;
7563;SDS011;3823;53.586;10.040;2023-03-24T10:45:46;3.75;;;1.33;;
7563;SDS011;3823;53.586;10.040;2023-03-24T10:48:32;5.72;;;2.05;;
7563;SDS011;3823;53.586;10.040;2023-03-24T10:50:59;4.22;;;1.63;;
7563;SDS011;3823;53.586;10.040;2023-03-24T10:53:25;2.50;;;1.65;;
7563;SDS011;3823;53.586;10.040;2023-03-24T10:55:51;4.85;;;1.48;;
7563;SDS011;3823;53.586;10.040;2023-03-24T10:58:34;3.67;;;1.02;;
7563;SDS011;3823;53.586;10.040;2023-03-24T11:01:06;4.43;;;1.25;;
7563;SDS011;3823;53.586;10.040;2023-03-24T11:03:49;7.22;;;1.98;;
7563;SDS011;3823;53.586;10.040;2023-03-24T11:06:16;9.65;;;1.75;;
7563;SDS011;3823;53.586;10.040;2023-03-24T11:08:43;9.40;;;1.30;;
7563;SDS011;3823;53.586;10.040;2023-03-24T11:11:13;3.72;;;1.23;;
7563;SDS011;3823;53.586;10.040;2023-03-24T11:13:53;6.38;;;1.63;;
7563;SDS011;3823;53.586;10.040;2023-03-24T11:16:25;4.47;;;1.33;;
7563;SDS011;3823;53.586;10.040;2023-03-24T11:18:56;2.25;;;1.00;;
7563;SDS011;3823;53.586;10.040;2023-03-24T11:21:28;7.07;;;1.27;;
7563;SDS011;3823;53.586;10.040;2023-03-24T11:23:58;7.63;;;1.50;;
7563;SDS011;3823;53.586;10.040;2023-03-24T11:26:30;5.68;;;1.15;;
7563;SDS011;3823;53.586;10.040;2023-03-24T11:29:09;4.53;;;1.52;;
7563;SDS011;3823;53.586;10.040;2023-03-24T11:31:47;5.22;;;1.58;;
7563;SDS011;3823;53.586;10.040;2023-03-24T11:34:17;3.25;;;1.38;;
7563;SDS011;3823;53.586;10.040;2023-03-24T11:36:53;7.22;;;1.33;;
7563;SDS011;3823;53.586;10.040;2023-03-24T11:39:25;10.55;;;1.63;;
7563;SDS011;3823;53.586;10.040;2023-03-24T11:41:58;6.68;;;1.38;;
7563;SDS011;3823;53.586;10.040;2023-03-24T11:44:25;4.43;;;1.60;;
7563;SDS011;3823;53.586;10.040;2023-03-24T11:47:03;6.07;;;1.10;;
7563;SDS011;3823;53.586;10.040;2023-03-24T11:49:41;7.72;;;1.23;;
7563;SDS011;3823;53.586;10.040;2023-03-24T11:52:18;3.50;;;2.10;;
7563;SDS011;3823;53.586;10.040;2023-03-24T11:54:50;8.27;;;1.60;;
7563;SDS011;3823;53.586;10.040;2023-03-24T11:57:18;3.50;;;0.90;;
7563;SDS011;3823;53.586;10.040;2023-03-24T12:00:14;6.13;;;1.45;;
7563;SDS011;3823;53.586;10.040;2023-03-24T12:06:04;2.17;;;1.10;;
7563;SDS011;3823;53.586;10.040;2023-03-24T12:08:58;10.18;;;1.77;;
7563;SDS011;3823;53.586;10.040;2023-03-24T12:14:10;5.00;;;1.35;;
7563;SDS011;3823;53.586;10.040;2023-03-24T12:22:13;11.23;;;2.10;;
7563;SDS011;3823;53.586;10.040;2023-03-24T12:25:00;10.65;;;2.30;;
7563;SDS011;3823;53.586;10.040;2023-03-24T12:27:36;4.30;;;1.58;;
7563;SDS011;3823;53.586;10.040;2023-03-24T12:33:37;5.32;;;2.20;;
7563;SDS011;3823;53.586;10.040;2023-03-24T12:53:07;4.90;;;2.10;;
7563;SDS011;3823;53.586;10.040;2023-03-24T12:55:50;9.00;;;1.58;;
7563;SDS011;3823;53.586;10.040;2023-03-24T12:58:45;4.53;;;1.92;;
7563;SDS011;3823;53.586;10.040;2023-03-24T13:04:20;9.25;;;1.75;;
7563;SDS011;3823;53.586;10.040;2023-03-24T13:07:09;4.38;;;1.83;;
7563;SDS011;3823;53.586;10.040;2023-03-24T13:12:15;9.15;;;2.22;;
7563;SDS011;3823;53.586;10.040;2023-03-24T13:17:31;7.22;;;1.75;;
7563;SDS011;3823;53.586;10.040;2023-03-24T13:20:11;7.03;;;2.28;;
7563;SDS011;3823;53.586;10.040;2023-03-24T13:22:38;5.55;;;1.83;;
7563;SDS011;3823;53.586;10.040;2023-03-24T13:25:07;5.25;;;1.88;;
7563;SDS011;3823;53.586;10.040;2023-03-24T13:27:44;7.45;;;1.63;;
7563;SDS011;3823;53.586;10.040;2023-03-24T13:30:17;5.82;;;1.05;;
7563;SDS011;3823;53.586;10.040;2023-03-24T13:32:51;5.43;;;1.70;;
7563;SDS011;3823;53.586;10.040;2023-03-24T13:38:18;6.20;;;1.67;;
7563;SDS011;3823;53.586;10.040;2023-03-24T13:40:51;5.90;;;1.55;;
7563;SDS011;3823;53.586;10.040;2023-03-24T13:43:25;4.03;;;1.50;;
7563;SDS011;3823;53.586;10.040;2023-03-24T13:48:26;4.22;;;1.35;;
7563;SDS011;3823;53.586;10.040;2023-03-24T13:51:02;5.45;;;1.08;;
7563;SDS011;3823;53.586;10.040;2023-03-24T13:53:32;4.50;;;1.15;;
7563;SDS011;3823;53.586;10.040;2023-03-24T13:56:07;4.63;;;1.00;;
7563;SDS011;3823;53.586;10.040;2023-03-24T13:58:45;3.28;;;0.80;;
7563;SDS011;3823;53.586;10.040;2023-03-24T14:01:43;4.75;;;1.60;;
7563;SDS011;3823;53.586;10.040;2023-03-24T14:07:23;3.97;;;1.10;;
7563;SDS011;3823;53.586;10.040;2023-03-24T14:12:53;7.43;;;1.27;;
7563;SDS011;3823;53.586;10.040;2023-03-24T14:16:04;2.25;;;1.33;;
7563;SDS011;3823;53.586;10.040;2023-03-24T14:23:29;6.05;;;2.00;;
7563;SDS011;3823;53.586;10.040;2023-03-24T14:26:14;3.15;;;1.00;;
7563;SDS011;3823;53.586;10.040;2023-03-24T14:29:00;4.30;;;0.98;;
7563;SDS011;3823;53.586;10.040;2023-03-24T14:31:30;3.42;;;1.17;;
7563;SDS011;3823;53.586;10.040;2023-03-24T14:33:59;4.95;;;1.30;;
7563;SDS011;3823;53.586;10.040;2023-03-24T14:36:46;4.15;;;1.75;;
7563;SDS011;3823;53.586;10.040;2023-03-24T14:39:57;5.63;;;1.38;;
7563;SDS011;3823;53.586;10.040;2023-03-24T14:42:26;4.30;;;1.50;;
7563;SDS011;3823;53.586;10.040;2023-03-24T14:44:53;9.98;;;2.05;;
7563;SDS011;3823;53.586;10.040;2023-03-24T14:49:49;5.90;;;1.75;;
7563;SDS011;3823;53.586;10.040;2023-03-24T14:52:26;6.32;;;1.30;;
7563;SDS011;3823;53.586;10.040;2023-03-24T14:55:02;5.50;;;1.42;;
7563;SDS011;3823;53.586;10.040;2023-03-24T14:57:34;7.68;;;2.25;;
7563;SDS011;3823;53.586;10.040;2023-03-24T15:02:44;5.75;;;1.65;;
7563;SDS011;3823;53.586;10.040;2023-03-24T15:05:30;3.17;;;1.23;;
7563;SDS011;3823;53.586;10.040;2023-03-24T15:10:24;4.82;;;2.00;;
7563;SDS011;3823;53.586;10.040;2023-03-24T15:12:50;4.38;;;1.33;;
7563;SDS011;3823;53.586;10.040;2023-03-24T15:15:17;2.92;;;0.85;;
7563;SDS011;3823;53.586;10.040;2023-03-24T15:17:45;6.80;;;1.30;;
7563;SDS011;3823;53.586;10.040;2023-03-24T15:20:25;4.53;;;1.00;;
7563;SDS011;3823;53.586;10.040;2023-03-24T15:22:53;8.77;;;2.40;;
7563;SDS011;3823;53.586;10.040;2023-03-24T15:25:25;6.57;;;1.38;;
7563;SDS011;3823;53.586;10.040;2023-03-24T15:27:53;7.57;;;1.45;;
7563;SDS011;3823;53.586;10.040;2023-03-24T15:30:19;2.30;;;1.10;;
7563;SDS011;3823;53.586;10.040;2023-03-24T15:32:45;4.47;;;0.88;;
7563;SDS011;3823;53.586;10.040;2023-03-24T15:35:13;3.33;;;1.45;;
7563;SDS011;3823;53.586;10.040;2023-03-24T15:37:41;7.00;;;1.20;;
7563;SDS011;3823;53.586;10.040;2023-03-24T15:42:49;2.30;;;0.93;;
7563;SDS011;3823;53.586;10.040;2023-03-24T15:45:19;5.20;;;1.00;;
7563;SDS011;3823;53.586;10.040;2023-03-24T15:47:49;3.70;;;1.08;;
7563;SDS011;3823;53.586;10.040;2023-03-24T15:53:26;10.18;;;2.30;;
7563;SDS011;3823;53.586;10.040;2023-03-24T15:56:05;5.28;;;1.60;;
7563;SDS011;3823;53.586;10.040;2023-03-24T15:58:55;6.03;;;1.38;;
7563;SDS011;3823;53.586;10.040;2023-03-24T16:01:31;3.67;;;1.35;;
7563;SDS011;3823;53.586;10.040;2023-03-24T16:04:20;5.20;;;1.40;;
7563;SDS011;3823;53.586;10.040;2023-03-24T16:06:48;5.65;;;1.40;;
7563;SDS011;3823;53.586;10.040;2023-03-24T16:09:16;16.30;;;2.35;;
7563;SDS011;3823;53.586;10.040;2023-03-24T16:11:47;5.78;;;2.13;;
7563;SDS011;3823;53.586;10.040;2023-03-24T16:16:59;6.00;;;1.33;;
7563;SDS011;3823;53.586;10.040;2023-03-24T16:19:26;3.05;;;1.00;;
7563;SDS011;3823;53.586;10.040;2023-03-24T16:21:52;2.88;;;1.15;;
7563;SDS011;3823;53.586;10.040;2023-03-24T16:24:18;8.00;;;2.28;;
7563;SDS011;3823;53.586;10.040;2023-03-24T16:26:44;4.25;;;1.60;;
7563;SDS011;3823;53.586;10.040;2023-03-24T16:31:43;7.13;;;1.40;;
7563;SDS011;3823;53.586;10.040;2023-03-24T16:34:13;9.02;;;1.42;;
7563;SDS011;3823;53.586;10.040;2023-03-24T16:36:43;7.53;;;1.23;;
7563;SDS011;3823;53.586;10.040;2023-03-24T16:39:14;6.63;;;2.03;;
7563;SDS011;3823;53.586;10.040;2023-03-24T16:41:41;4.35;;;1.85;;
7563;SDS011;3823;53.586;10.040;2023-03-24T16:44:06;7.30;;;1.48;;
7563;SDS011;3823;53.586;10.040;2023-03-24T16:46:33;10.02;;;2.10;;
7563;SDS011;3823;53.586;10.040;2023-03-24T16:49:00;6.72;;;1.63;;
7563;SDS011;3823;53.586;10.040;2023-03-24T16:51:28;6.70;;;1.70;;
7563;SDS011;3823;53.586;10.040;2023-03-24T16:53:54;4.82;;;1.95;;
7563;SDS011;3823;53.586;10.040;2023-03-24T16:56:20;7.25;;;1.75;;
7563;SDS011;3823;53.586;10.040;2023-03-24T16:58:46;5.22;;;1.50;;
7563;SDS011;3823;53.586;10.040;2023-03-24T17:01:20;3.38;;;1.75;;
7563;SDS011;3823;53.586;10.040;2023-03-24T17:03:59;7.53;;;2.30;;
7563;SDS011;3823;53.586;10.040;2023-03-24T17:06:37;4.85;;;2.00;;
7563;SDS011;3823;53.586;10.040;2023-03-24T17:09:05;9.77;;;2.10;;
7563;SDS011;3823;53.586;10.040;2023-03-24T17:11:33;3.60;;;2.13;;
7563;SDS011;3823;53.586;10.040;2023-03-24T17:14:00;6.40;;;1.95;;
7563;SDS011;3823;53.586;10.040;2023-03-24T17:16:29;7.57;;;3.42;;
7563;SDS011;3823;53.586;10.040;2023-03-24T17:18:56;5.90;;;1.70;;
7563;SDS011;3823;53.586;10.040;2023-03-24T17:21:21;2.22;;;1.70;;
7563;SDS011;3823;53.586;10.040;2023-03-24T17:23:47;7.72;;;1.80;;
7563;SDS011;3823;53.586;10.040;2023-03-24T17:26:14;9.90;;;2.10;;
7563;SDS011;3823;53.586;10.040;2023-03-24T17:28:40;8.30;;;1.90;;
7563;SDS011;3823;53.586;10.040;2023-03-24T17:31:06;4.85;;;1.67;;
7563;SDS011;3823;53.586;10.040;2023-03-24T17:33:32;9.02;;;2.50;;
7563;SDS011;3823;53.586;10.040;2023-03-24T17:35:58;5.07;;;2.15;;
7563;SDS011;3823;53.586;10.040;2023-03-24T17:38:23;4.75;;;1.80;;
7563;SDS011;3823;53.586;10.040;2023-03-24T17:40:57;7.07;;;1.70;;
7563;SDS011;3823;53.586;10.040;2023-03-24T17:43:24;5.55;;;2.55;;
7563;SDS011;3823;53.586;10.040;2023-03-24T17:45:51;4.70;;;1.83;;